Details From MROC - San Jose Juan Santamaria Intl
To SEGS - Galapagos - Baltra
Flight Number -
Tags decoded
Created
Modified
Stats Distance 724 nm / 1,342 km
Max Altitude 0 ft / 0 m
Waypoints 2
Social Downloads 2
Likes 0
Share VATSIM

Download

Looking for another format? Having issues loading an existing format? Contact us
Advertisement - Login to hide

Notes

Requested: MROC SEGS

Route

MROC SEGS

ID Type Via Altitude Latitude Longitude Leg Dist Tot Dist Heading (true) Name
O MROC APT - 0 ft / 0 m 9.99393˚ -84.20888˚ - 0 nm - San Jose Juan Santamaria Intl
O SEGS APT - 0 ft / 0 m -0.45376˚ -90.26591˚ 724 nm 724 nm 210° / 210° Galapagos - Baltra

Altitude Profile

Advertisement - Login to hide

Weather


0- 5 10 15 20 25 30 35+ Temperature / ° C

Clouds and Precipitation
Forecast for 2018-05-25 12:00 UTC. Updated 6 hours ago

Ground ~20,000 ft ~40,000 ft Winds

MROC

Details ICAO MROC (SJO)
Name San Jose Juan Santamaria Intl
Region Costa Rica
Timezone America/Costa_Rica (UTC-6.0)
Stats Elevation 3,021 ft / 921 m (AMSL)
Location 9.993927° -84.208884°
Runways 1
Magnetic Variation 1.783° W

METAR

MROC 251700Z 24010KT 9999 FEW040 SCT250 27/19 A3000 NOSIG

Decode

TAF

TAF MROC 251100Z 2512/2612 05006KT 9999 FEW030 SCT100 TX28/2518Z TN19/2610Z BECMG 2513/2515 24007KT TEMPO 2518/2523 5000 TSRA FEW015CB TEMPO 2602/2606 3000 RA BR BKN015

Decode

Departure Runways

ID Width Length Bearing (true) Bearing (mag) Surface Threshold Offset Overrun Length
07 151 ft / 46 m 9,994 ft / 3,046 m 68.91° 70.69° Asphalt 0 ft / 0 m 200 ft / 61 m
25 151 ft / 46 m 9,994 ft / 3,046 m 248.92° 250.70° Asphalt 1,969 ft / 600 m 200 ft / 61 m

SEGS

Details ICAO SEGS (GPS)
Name Galapagos - Baltra
Region Equador
Timezone Pacific/Galapagos (UTC-6.0)
Stats Elevation 207 ft / 63 m (AMSL)
Location -0.453757° -90.265914°
Runways 1
Magnetic Variation 3.429° E

METAR

SEGS 251700Z 12015KT 9999 SCT020 28/21 Q1013 A2993

Decode

TAF

Not found

Destination Runways

ID Width Length Bearing (true) Bearing (mag) Surface Threshold Offset Overrun Length
14 115 ft / 35 m 7,904 ft / 2,409 m 144.01° 140.58° Asphalt 0 ft / 0 m 330 ft / 101 m
32 115 ft / 35 m 7,904 ft / 2,409 m 324.01° 320.58° Asphalt 0 ft / 0 m 330 ft / 101 m

Approach Navaids

Runway Type Ident Frequency Range Bearing (true) Bearing (mag) Slope Elevation
14 Localiser ILB 110.90 MHz 18 nm / 33 km 144.01° 140.58° - 207 ft / 63 m (AMSL)
14 Glidescope ILB 110.90 MHz 10 nm / 19 km 144.01° 140.58° 3.00° 207 ft / 63 m (AMSL)

Popular Alternatives